Time;durP1;ratioP1;P1;durP2;ratioP2;P2;SDS_P1;SDS_P2;PMS_P1;PMS_P2;Temp;Humidity;BMP_temperature;BMP_pressure;BME280_temperature;BME280_humidity;BME280_pressure;Samples;Min_cycle;Max_cycle;Signal;HPM_P1;HPM_P2
2022/07/26 00:02:22;;;;;;;17.75;13.68;;;26.10;99.90;;;;;;4888114;29;20123;-93
2022/07/26 00:04:52;;;;;;;14.85;13.25;;;26.10;99.90;;;;;;4846287;29;20143;-93
2022/07/26 00:07:27;;;;;;;16.23;13.48;;;26.10;99.90;;;;;;4847910;29;20065;-94
2022/07/26 00:09:54;;;;;;;15.50;14.00;;;26.10;99.90;;;;;;4846996;29;20042;-94
2022/07/26 00:12:29;;;;;;;16.23;13.32;;;26.10;99.90;;;;;;4832974;29;20073;-93
2022/07/26 00:14:57;;;;;;;16.67;14.00;;;26.00;99.90;;;;;;4847398;29;20050;-93
2022/07/26 00:17:24;;;;;;;15.85;13.52;;;26.00;99.90;;;;;;4846535;29;20022;-93
2022/07/26 00:19:51;;;;;;;18.52;13.43;;;25.90;99.90;;;;;;4847186;29;20158;-93
2022/07/26 00:22:34;;;;;;;16.25;12.77;;;25.90;99.90;;;;;;4846452;29;20027;-93
2022/07/26 00:25:07;;;;;;;15.43;13.07;;;25.90;99.90;;;;;;4846155;29;20104;-92
2022/07/26 00:27:38;;;;;;;17.13;13.50;;;25.90;99.90;;;;;;4846444;29;20030;-92
2022/07/26 00:30:08;;;;;;;14.95;13.07;;;25.90;99.90;;;;;;4838225;29;20062;-95
2022/07/26 00:32:36;;;;;;;18.88;12.55;;;25.80;99.90;;;;;;4850186;29;20057;-93
2022/07/26 00:35:04;;;;;;;16.70;13.45;;;25.70;99.90;;;;;;4855299;29;20037;-93
2022/07/26 00:37:31;;;;;;;17.50;13.25;;;25.70;99.90;;;;;;4868341;29;20052;-93
2022/07/26 00:39:58;;;;;;;14.93;12.68;;;25.80;99.90;;;;;;4852943;29;20029;-94
2022/07/26 00:42:25;;;;;;;15.85;13.88;;;25.80;99.90;;;;;;4852797;29;20036;-92
2022/07/26 00:44:53;;;;;;;14.52;12.75;;;25.70;99.90;;;;;;4853764;29;20029;-93
2022/07/26 00:47:20;;;;;;;15.60;14.00;;;25.60;99.90;;;;;;4868663;29;20033;-92
2022/07/26 00:49:47;;;;;;;15.23;13.63;;;25.60;99.90;;;;;;4869015;29;20021;-93
2022/07/26 00:52:14;;;;;;;15.65;13.90;;;25.60;99.90;;;;;;4868443;29;20048;-94
2022/07/26 00:54:45;;;;;;;15.45;13.27;;;25.50;99.90;;;;;;4868606;29;20037;-93
2022/07/26 00:57:13;;;;;;;15.30;13.55;;;25.50;99.90;;;;;;4869048;29;20029;-93
2022/07/26 00:59:41;;;;;;;15.07;13.48;;;25.50;99.90;;;;;;4853272;29;20062;-93
2022/07/26 01:02:10;;;;;;;19.60;14.63;;;25.50;99.90;;;;;;4869520;29;20037;-94
2022/07/26 01:04:37;;;;;;;14.65;12.82;;;25.40;99.90;;;;;;4869278;29;20029;-94
2022/07/26 01:07:07;;;;;;;17.25;13.23;;;25.50;99.90;;;;;;4869414;29;20049;-93
2022/07/26 01:09:35;;;;;;;20.60;13.27;;;25.50;99.90;;;;;;4873647;29;20045;-92
2022/07/26 01:12:05;;;;;;;18.40;13.40;;;25.50;99.90;;;;;;4872576;29;20044;-94
2022/07/26 01:14:32;;;;;;;15.48;13.40;;;25.50;99.90;;;;;;4867697;29;20033;-95
2022/07/26 01:16:59;;;;;;;15.60;13.65;;;25.50;99.90;;;;;;4852038;29;20036;-93
2022/07/26 01:19:26;;;;;;;19.23;13.20;;;25.50;99.90;;;;;;4874408;29;20040;-94
2022/07/26 01:21:54;;;;;;;17.17;13.40;;;25.60;99.90;;;;;;4872607;29;20037;-93
2022/07/26 01:24:20;;;;;;;18.05;13.90;;;25.60;99.90;;;;;;4869697;29;20526;-92
2022/07/26 01:26:47;;;;;;;16.27;13.02;;;25.70;99.90;;;;;;4867702;29;20037;-94
2022/07/26 01:29:14;;;;;;;18.00;12.57;;;25.70;99.90;;;;;;4867466;29;20045;-94
2022/07/26 01:31:41;;;;;;;14.95;13.45;;;25.70;99.90;;;;;;4867988;29;20045;-93
2022/07/26 01:34:08;;;;;;;16.45;13.07;;;25.60;99.90;;;;;;4867889;29;20036;-93
2022/07/26 01:36:35;;;;;;;19.67;13.95;;;25.60;99.90;;;;;;4867840;29;20029;-93
2022/07/26 01:39:03;;;;;;;14.95;13.45;;;25.50;99.90;;;;;;4854039;29;20036;-94
2022/07/26 01:41:30;;;;;;;16.75;12.98;;;25.50;99.90;;;;;;4868707;29;20092;-93
2022/07/26 01:43:57;;;;;;;14.02;12.52;;;25.50;99.90;;;;;;4869580;29;20025;-93
2022/07/26 01:46:24;;;;;;;18.98;12.77;;;25.50;99.90;;;;;;4869743;29;20033;-93
2022/07/26 01:48:51;;;;;;;15.35;13.65;;;25.40;99.90;;;;;;4868282;29;20033;-94
2022/07/26 01:51:19;;;;;;;20.48;14.05;;;25.40;99.90;;;;;;4868522;29;20045;-94
2022/07/26 01:53:46;;;;;;;17.98;13.73;;;25.40;99.90;;;;;;4869399;29;20054;-92
2022/07/26 01:56:13;;;;;;;19.83;13.90;;;25.40;99.90;;;;;;4853781;29;20108;-94
2022/07/26 01:58:41;;;;;;;18.40;14.25;;;25.50;99.90;;;;;;4868230;29;20072;-93
2022/07/26 02:01:09;;;;;;;15.45;13.38;;;25.50;99.90;;;;;;4853211;29;20052;-94
2022/07/26 02:03:39;;;;;;;18.65;14.00;;;25.50;99.90;;;;;;4868216;29;20041;-94
2022/07/26 02:06:06;;;;;;;17.02;13.93;;;25.50;99.90;;;;;;4868538;29;20419;-94
2022/07/26 02:08:35;;;;;;;20.65;14.07;;;25.50;99.90;;;;;;4868723;29;20108;-93
2022/07/26 02:11:05;;;;;;;20.30;14.10;;;25.50;99.90;;;;;;4877011;29;20041;-92
2022/07/26 02:13:36;;;;;;;16.75;14.20;;;25.40;99.90;;;;;;4879765;29;20040;-94
2022/07/26 02:16:08;;;;;;;16.92;14.35;;;25.40;99.90;;;;;;4873886;29;20069;-93
2022/07/26 02:18:36;;;;;;;18.58;14.43;;;25.40;99.90;;;;;;4870073;29;20025;-93
2022/07/26 02:21:08;;;;;;;16.40;13.40;;;25.40;99.90;;;;;;4868170;29;20036;-93
2022/07/26 02:23:35;;;;;;;19.35;14.57;;;25.40;99.90;;;;;;4868220;29;20483;-92
2022/07/26 02:26:03;;;;;;;17.60;13.82;;;25.40;99.90;;;;;;4853310;29;20092;-93
2022/07/26 02:28:30;;;;;;;17.00;14.02;;;25.40;99.90;;;;;;4867219;29;20033;-93
2022/07/26 02:30:57;;;;;;;19.27;14.18;;;25.30;99.90;;;;;;4868195;29;20399;-93
2022/07/26 02:33:24;;;;;;;16.70;14.90;;;25.10;99.90;;;;;;4868470;29;20081;-93
2022/07/26 02:35:51;;;;;;;17.98;15.25;;;24.90;99.90;;;;;;4858363;29;20029;-93
2022/07/26 02:38:18;;;;;;;20.83;14.73;;;24.90;99.90;;;;;;4877997;29;20041;-93
2022/07/26 02:40:45;;;;;;;22.35;15.32;;;24.90;99.90;;;;;;4858134;29;20117;-93
2022/07/26 02:43:20;;;;;;;19.77;14.27;;;24.90;99.90;;;;;;4871040;29;20041;-93
2022/07/26 02:45:56;;;;;;;16.30;14.60;;;24.80;99.90;;;;;;4869748;29;20033;-94
2022/07/26 02:48:22;;;;;;;17.85;15.82;;;24.80;99.90;;;;;;4867904;29;20049;-94
2022/07/26 02:50:49;;;;;;;22.20;15.18;;;24.70;99.90;;;;;;4868628;29;20041;-93
2022/07/26 02:53:17;;;;;;;19.98;14.95;;;24.60;99.90;;;;;;4873268;29;20025;-93
2022/07/26 02:55:44;;;;;;;18.23;14.48;;;24.60;99.90;;;;;;4873892;29;20037;-93
2022/07/26 02:58:10;;;;;;;16.98;15.00;;;24.60;99.90;;;;;;4870672;29;20051;-93
2022/07/26 03:00:37;;;;;;;20.33;15.75;;;24.60;99.90;;;;;;4875393;29;20085;-93
2022/07/26 03:03:04;;;;;;;19.65;14.88;;;24.50;99.90;;;;;;4872015;29;20120;-93
2022/07/26 03:05:31;;;;;;;18.10;15.27;;;24.40;99.90;;;;;;4868318;29;20033;-93
2022/07/26 03:07:58;;;;;;;16.55;14.70;;;24.30;99.90;;;;;;4868160;29;20033;-94
2022/07/26 03:10:25;;;;;;;16.85;15.15;;;24.30;99.90;;;;;;4867879;29;20033;-93
2022/07/26 03:12:52;;;;;;;18.02;15.68;;;24.20;99.90;;;;;;4851967;29;20133;-93
2022/07/26 03:15:19;;;;;;;18.63;15.88;;;24.00;99.90;;;;;;4852756;29;20030;-93
2022/07/26 03:17:46;;;;;;;21.48;16.45;;;23.90;99.90;;;;;;4868245;29;20104;-93
2022/07/26 03:20:13;;;;;;;20.33;16.30;;;23.90;99.90;;;;;;4853968;29;20427;-93
2022/07/26 03:22:40;;;;;;;20.40;16.60;;;23.90;99.90;;;;;;4868199;29;20120;-92
2022/07/26 03:25:07;;;;;;;18.98;16.10;;;24.00;99.90;;;;;;4851887;29;20517;-92
2022/07/26 03:27:34;;;;;;;20.55;15.80;;;24.00;99.90;;;;;;4869635;29;20482;-92
2022/07/26 03:30:02;;;;;;;23.00;16.25;;;24.10;99.90;;;;;;4867263;29;20037;-94
2022/07/26 03:32:28;;;;;;;19.85;16.17;;;24.20;99.90;;;;;;4866420;29;20043;-93
2022/07/26 03:34:55;;;;;;;18.25;16.30;;;24.20;99.90;;;;;;4851561;29;20029;-93
2022/07/26 03:37:24;;;;;;;19.27;16.15;;;24.40;99.90;;;;;;4867138;29;20395;-93
2022/07/26 03:39:50;;;;;;;29.00;20.55;;;24.40;99.90;;;;;;4868182;29;20108;-94
2022/07/26 03:42:17;;;;;;;26.02;19.35;;;24.70;99.90;;;;;;4867156;29;20025;-92
2022/07/26 03:44:44;;;;;;;24.48;20.05;;;24.80;99.90;;;;;;4852232;29;20172;-92
2022/07/26 03:47:11;;;;;;;23.38;20.88;;;25.10;99.90;;;;;;4873972;29;20037;-91
2022/07/26 03:49:37;;;;;;;22.42;20.10;;;25.20;99.90;;;;;;4870847;29;20048;-92
2022/07/26 03:52:04;;;;;;;21.38;19.17;;;25.30;99.90;;;;;;4876143;29;20060;-93
2022/07/26 03:54:37;;;;;;;22.73;20.08;;;25.40;99.90;;;;;;4872590;29;20032;-92
2022/07/26 03:57:04;;;;;;;21.08;18.67;;;25.50;99.90;;;;;;4870147;29;20060;-94
2022/07/26 03:59:31;;;;;;;22.73;18.23;;;25.60;99.90;;;;;;4868577;29;20100;-93
2022/07/26 04:01:58;;;;;;;20.75;18.13;;;25.60;99.90;;;;;;4868304;29;20043;-93
2022/07/26 04:04:25;;;;;;;21.17;17.15;;;25.70;99.90;;;;;;4853425;29;20436;-94
2022/07/26 04:06:51;;;;;;;19.33;17.38;;;25.70;99.90;;;;;;4870620;29;20041;-93
2022/07/26 04:09:18;;;;;;;19.13;17.10;;;25.80;99.90;;;;;;4871885;29;20061;-92
2022/07/26 04:11:47;;;;;;;19.08;16.15;;;25.90;99.90;;;;;;4875627;29;20049;-92
2022/07/26 04:14:15;;;;;;;17.80;15.50;;;25.90;99.90;;;;;;4874248;29;20375;-93
2022/07/26 04:16:41;;;;;;;18.00;16.10;;;26.00;99.90;;;;;;4872546;29;20041;-93
2022/07/26 04:19:08;;;;;;;19.73;17.50;;;26.00;99.90;;;;;;4870778;29;20084;-94
2022/07/26 04:21:35;;;;;;;18.63;16.83;;;26.10;99.90;;;;;;4870557;29;20032;-94
2022/07/26 04:24:02;;;;;;;20.52;18.33;;;26.10;99.90;;;;;;4872851;29;20093;-93
2022/07/26 04:26:30;;;;;;;19.13;17.10;;;26.20;99.90;;;;;;4867479;29;20033;-93
2022/07/26 04:28:57;;;;;;;18.33;15.88;;;26.20;99.90;;;;;;4852176;29;20025;-93
2022/07/26 04:31:24;;;;;;;21.38;16.17;;;26.20;99.90;;;;;;4852949;29;20132;-94
2022/07/26 04:36:16;;;;;;;19.40;15.63;;;26.30;99.90;;;;;;4926374;23;20059;-92
2022/07/26 04:38:44;;;;;;;18.35;15.75;;;26.30;99.90;;;;;;4903990;29;20060;-94
2022/07/26 04:41:11;;;;;;;17.92;14.68;;;26.30;99.90;;;;;;4904971;29;20090;-93
2022/07/26 04:43:37;;;;;;;22.48;16.75;;;26.30;99.90;;;;;;4905650;29;20044;-92
2022/07/26 04:46:04;;;;;;;19.30;15.65;;;26.40;99.90;;;;;;4895785;29;20115;-92
2022/07/26 04:48:31;;;;;;;20.75;16.58;;;26.60;99.90;;;;;;4913889;29;20036;-91
2022/07/26 04:50:59;;;;;;;21.25;15.63;;;27.30;99.90;;;;;;4923156;29;20562;-92
2022/07/26 04:53:26;;;;;;;18.52;16.05;;;28.50;99.90;;;;;;4912437;29;20024;-92
2022/07/26 04:55:53;;;;;;;19.10;16.23;;;29.80;99.90;;;;;;4897393;29;20074;-94
2022/07/26 04:58:29;;;;;;;22.80;16.02;;;30.80;99.90;;;;;;4897375;29;20080;-94
2022/07/26 05:01:13;;;;;;;18.33;15.93;;;31.50;99.90;;;;;;4906598;29;20122;-93
2022/07/26 05:04:10;;;;;;;16.90;14.70;;;32.40;99.90;;;;;;4924778;29;20059;-94
2022/07/26 05:06:43;;;;;;;17.60;15.43;;;33.10;99.90;;;;;;4895540;29;20402;-93
2022/07/26 05:09:26;;;;;;;17.58;15.75;;;33.90;99.90;;;;;;4894747;29;20040;-94
2022/07/26 05:12:02;;;;;;;18.00;16.30;;;33.80;99.90;;;;;;4912325;29;20044;-94
2022/07/26 05:14:43;;;;;;;17.85;15.95;;;34.00;99.90;;;;;;4912293;29;20028;-94
2022/07/26 05:17:18;;;;;;;18.67;16.80;;;34.40;99.90;;;;;;4911475;29;20458;-93
2022/07/26 05:19:53;;;;;;;17.13;15.48;;;34.50;99.90;;;;;;4892801;29;20036;-93
2022/07/26 05:22:27;;;;;;;18.08;15.68;;;35.00;99.90;;;;;;4911022;29;20028;-94
2022/07/26 05:25:18;;;;;;;18.85;17.15;;;35.20;99.90;;;;;;4910527;29;20032;-94
2022/07/26 05:27:51;;;;;;;18.55;16.85;;;35.40;99.90;;;;;;4909562;29;20043;-93
2022/07/26 05:30:21;;;;;;;29.08;17.55;;;35.60;99.90;;;;;;4893603;29;20032;-94
2022/07/26 05:33:07;;;;;;;21.88;18.08;;;36.00;99.90;;;;;;4892885;29;20056;-94
2022/07/26 05:35:40;;;;;;;16.75;15.23;;;36.00;99.90;;;;;;4910379;29;20141;-93
2022/07/26 05:38:32;;;;;;;16.17;14.77;;;36.20;99.90;;;;;;4893977;29;20043;-95
2022/07/26 05:41:05;;;;;;;16.63;15.32;;;36.00;99.90;;;;;;4908120;29;20032;-93
2022/07/26 05:43:36;;;;;;;18.63;16.90;;;34.80;99.90;;;;;;4892900;29;20075;-93
2022/07/26 05:46:14;;;;;;;17.38;15.98;;;35.10;99.90;;;;;;4918620;29;20032;-93
2022/07/26 05:48:46;;;;;;;17.38;15.90;;;36.40;99.90;;;;;;4916931;29;20417;-94
2022/07/26 05:51:21;;;;;;;18.58;16.98;;;37.00;99.90;;;;;;4909501;29;20052;-93
2022/07/26 05:53:54;;;;;;;18.35;16.77;;;37.10;99.90;;;;;;4910467;29;20054;-94
2022/07/26 05:56:24;;;;;;;19.02;14.85;;;37.90;99.90;;;;;;4890811;29;20047;-93
2022/07/26 05:58:54;;;;;;;17.48;15.75;;;37.30;99.90;;;;;;4908217;29;20032;-94
2022/07/26 06:01:20;;;;;;;17.85;16.40;;;37.20;99.90;;;;;;4894088;29;20059;-94
2022/07/26 06:03:50;;;;;;;16.15;14.82;;;36.80;99.90;;;;;;4911388;29;20028;-93
2022/07/26 06:06:21;;;;;;;17.33;16.05;;;37.70;99.90;;;;;;4910435;29;20063;-94
2022/07/26 06:09:00;;;;;;;17.05;15.55;;;37.40;99.90;;;;;;4897050;29;20028;-94
2022/07/26 06:11:47;;;;;;;16.67;15.60;;;36.90;99.90;;;;;;4907042;29;20130;-94
2022/07/26 06:14:17;;;;;;;17.02;15.80;;;36.10;99.90;;;;;;4906739;29;20105;-93
2022/07/26 06:16:58;;;;;;;17.17;15.98;;;35.60;99.90;;;;;;4907410;29;20036;-93
2022/07/26 06:19:25;;;;;;;17.52;16.20;;;35.00;99.90;;;;;;4904793;29;20470;-92
2022/07/26 06:21:52;;;;;;;18.42;16.92;;;34.40;99.90;;;;;;4903876;29;20043;-93
2022/07/26 06:24:19;;;;;;;17.85;16.65;;;34.70;99.90;;;;;;4887499;29;20036;-93
2022/07/26 06:26:54;;;;;;;18.40;17.13;;;34.40;99.90;;;;;;4903373;29;20036;-93
2022/07/26 06:29:32;;;;;;;19.17;17.33;;;35.20;99.90;;;;;;4907458;29;20427;-93
2022/07/26 06:31:59;;;;;;;17.27;15.98;;;36.10;99.90;;;;;;4903774;29;20036;-93
2022/07/26 06:34:32;;;;;;;17.67;16.23;;;36.10;99.90;;;;;;4891048;29;20155;-92
2022/07/26 06:37:01;;;;;;;18.40;16.67;;;35.60;99.90;;;;;;4910194;29;20039;-93
2022/07/26 06:43:40;;;;;;;;;;;;;;;;;;;;;
2022/07/26 06:46:49;;;;;;;19.10;17.40;;;36.80;99.90;;;;;;4836648;29;20098;-94
2022/07/26 07:56:01;;;;;;;19.30;18.05;;;37.60;99.90;;;;;;4936083;29;20048;-95
2022/07/26 07:58:30;;;;;;;19.25;17.77;;;38.50;99.90;;;;;;4907180;29;20063;-95
2022/07/26 08:01:18;;;;;;;18.60;17.15;;;38.30;99.90;;;;;;4921545;29;20537;-94
2022/07/26 08:04:08;;;;;;;18.58;17.05;;;37.60;99.90;;;;;;4921760;29;20040;-94
2022/07/26 08:06:36;;;;;;;18.98;17.48;;;37.60;99.90;;;;;;4895107;29;20044;-94
2022/07/26 08:09:22;;;;;;;19.80;18.30;;;37.30;99.90;;;;;;4887233;29;20124;-94
2022/07/26 08:12:16;;;;;;;19.40;18.10;;;38.10;99.90;;;;;;4909372;23;20045;-93
2022/07/26 08:15:00;;;;;;;20.42;18.58;;;38.70;99.90;;;;;;4878908;23;20021;-93
2022/07/26 08:21:30;;;;;;;19.83;18.33;;;39.10;99.90;;;;;;4893165;29;20061;-93
2022/07/26 08:24:02;;;;;;;19.15;17.85;;;39.00;99.90;;;;;;4863289;29;20408;-94
2022/07/26 08:26:28;;;;;;;19.70;18.27;;;39.30;99.90;;;;;;4861320;29;20037;-93
2022/07/26 08:28:55;;;;;;;20.55;18.85;;;39.50;99.90;;;;;;4860687;29;20060;-92
2022/07/26 08:31:22;;;;;;;20.48;18.95;;;39.30;99.90;;;;;;4862089;29;20045;-93
2022/07/26 08:33:57;;;;;;;19.27;17.95;;;39.00;99.90;;;;;;4839318;29;20113;-93
2022/07/26 08:36:24;;;;;;;20.45;18.85;;;38.90;99.90;;;;;;4829016;29;20066;-93
2022/07/26 08:38:53;;;;;;;20.00;18.42;;;39.00;99.90;;;;;;4827805;29;20076;-93
2022/07/26 08:41:21;;;;;;;19.40;18.08;;;39.60;99.90;;;;;;4828704;29;20038;-93
2022/07/26 08:43:47;;;;;;;19.25;17.55;;;39.50;99.90;;;;;;4828632;29;20388;-92
2022/07/26 08:46:17;;;;;;;19.52;18.02;;;39.40;99.90;;;;;;4828580;29;20045;-92
2022/07/26 08:48:44;;;;;;;19.27;17.88;;;39.70;99.90;;;;;;4828689;29;20040;-91
2022/07/26 08:51:41;;;;;;;19.30;17.75;;;38.20;99.90;;;;;;4813547;29;20139;-92
2022/07/26 08:54:12;;;;;;;19.70;18.10;;;37.00;99.90;;;;;;4833147;29;20033;-90
2022/07/26 08:56:50;;;;;;;19.45;17.98;;;37.60;99.90;;;;;;4831525;29;20074;-91
2022/07/26 08:59:19;;;;;;;18.63;17.33;;;38.20;99.90;;;;;;4828711;29;20042;-94
2022/07/26 09:01:56;;;;;;;18.67;17.45;;;38.50;99.90;;;;;;4828240;29;20125;-91
2022/07/26 09:04:28;;;;;;;19.40;18.10;;;39.00;99.90;;;;;;4828722;29;20052;-93
2022/07/26 09:07:04;;;;;;;19.58;18.05;;;38.90;99.90;;;;;;4828146;29;20120;-91
2022/07/26 09:09:33;;;;;;;19.38;17.88;;;38.50;99.90;;;;;;4828284;29;20038;-91
2022/07/26 09:12:33;;;;;;;18.92;17.33;;;38.40;99.90;;;;;;4843655;29;20069;-93
2022/07/26 09:15:02;;;;;;;19.88;18.00;;;37.60;99.90;;;;;;4831658;29;20033;-92
2022/07/26 09:17:44;;;;;;;19.17;17.85;;;37.70;99.90;;;;;;4846815;29;20045;-92
2022/07/26 09:20:20;;;;;;;19.77;18.27;;;38.30;99.90;;;;;;4831480;29;20049;-93
2022/07/26 09:23:08;;;;;;;20.98;18.23;;;38.80;99.70;;;;;;4846535;29;20029;-92
2022/07/26 09:25:43;;;;;;;20.02;18.15;;;38.80;99.60;;;;;;4831652;29;20076;-91
2022/07/26 09:28:28;;;;;;;19.50;18.00;;;39.10;99.60;;;;;;4831681;29;20042;-93
2022/07/26 09:31:03;;;;;;;18.48;16.98;;;39.40;98.90;;;;;;4831360;29;20049;-92
2022/07/26 09:33:47;;;;;;;18.88;17.60;;;39.80;98.40;;;;;;4846891;29;20120;-92
2022/07/26 09:36:15;;;;;;;19.40;17.92;;;39.90;97.80;;;;;;4831609;29;20045;-93
2022/07/26 09:38:48;;;;;;;18.17;16.85;;;39.90;97.40;;;;;;4847737;29;20397;-93
2022/07/26 09:41:23;;;;;;;18.75;17.45;;;39.40;97.50;;;;;;4831346;29;20052;-92
2022/07/26 09:43:51;;;;;;;18.75;17.27;;;39.20;97.40;;;;;;4831382;29;20588;-93
2022/07/26 09:46:18;;;;;;;19.77;18.27;;;38.90;97.30;;;;;;4831216;29;20424;-93
2022/07/26 09:48:44;;;;;;;19.55;18.20;;;38.80;97.40;;;;;;4831063;29;20054;-92
2022/07/26 09:51:37;;;;;;;19.80;18.20;;;38.30;97.70;;;;;;4832580;29;20041;-93
2022/07/26 09:54:04;;;;;;;18.85;17.42;;;37.90;97.90;;;;;;4831375;29;20066;-92
2022/07/26 09:57:07;;;;;;;18.95;17.60;;;37.50;98.10;;;;;;4831059;29;20033;-92
2022/07/26 09:59:34;;;;;;;19.48;18.02;;;37.70;97.90;;;;;;4846126;29;20121;-90
2022/07/26 10:02:00;;;;;;;18.85;17.52;;;37.20;97.90;;;;;;4846138;29;20025;-90
2022/07/26 10:04:30;;;;;;;20.35;18.38;;;37.50;97.90;;;;;;4831225;29;20074;-91
2022/07/26 10:06:57;;;;;;;19.50;18.10;;;36.80;98.10;;;;;;4830999;29;20484;-92
2022/07/26 10:09:24;;;;;;;18.88;17.58;;;36.60;98.70;;;;;;4830900;29;20033;-92
2022/07/26 10:12:01;;;;;;;18.95;17.65;;;36.60;98.90;;;;;;4830866;29;20045;-91
2022/07/26 10:14:45;;;;;;;19.35;17.80;;;36.60;98.40;;;;;;4871509;29;20024;-91
2022/07/26 10:17:27;;;;;;;20.02;18.52;;;36.90;98.50;;;;;;4893709;29;20974;-91
2022/07/26 10:19:58;;;;;;;20.05;18.75;;;37.20;98.40;;;;;;4861996;29;20056;-92
2022/07/26 10:22:30;;;;;;;19.75;18.35;;;37.40;98.20;;;;;;4885580;29;20037;-91
2022/07/26 10:25:16;;;;;;;20.30;18.73;;;37.40;97.50;;;;;;4880953;29;20045;-93
2022/07/26 10:28:03;;;;;;;19.92;18.63;;;37.40;97.10;;;;;;4866339;29;20024;-92
2022/07/26 10:30:29;;;;;;;20.08;18.67;;;37.60;97.00;;;;;;4882703;29;20060;-91
2022/07/26 10:33:08;;;;;;;20.42;18.92;;;37.80;96.90;;;;;;4865513;29;20028;-92
2022/07/26 10:35:43;;;;;;;20.30;18.58;;;37.70;97.30;;;;;;4892872;29;20029;-93
2022/07/26 10:38:28;;;;;;;19.95;18.42;;;37.90;97.20;;;;;;4867260;29;20475;-92
2022/07/26 10:41:00;;;;;;;19.75;18.30;;;37.90;97.50;;;;;;4866826;29;20377;-91
2022/07/26 10:43:28;;;;;;;20.08;18.30;;;37.70;97.30;;;;;;4882286;29;20088;-93
2022/07/26 10:46:19;;;;;;;19.63;18.23;;;37.70;96.80;;;;;;4866996;29;20025;-93
2022/07/26 10:49:03;;;;;;;20.25;18.77;;;37.20;96.80;;;;;;4882098;29;20119;-92
2022/07/26 10:51:40;;;;;;;21.20;19.45;;;36.90;97.10;;;;;;4867036;29;20038;-93
2022/07/26 10:54:12;;;;;;;20.80;19.15;;;36.40;96.80;;;;;;4882055;29;20060;-93
2022/07/26 10:56:39;;;;;;;20.42;18.85;;;36.40;97.30;;;;;;4866635;29;20107;-92
2022/07/26 10:59:05;;;;;;;20.13;18.52;;;36.30;97.30;;;;;;4866751;29;20041;-93
2022/07/26 11:01:41;;;;;;;20.75;19.15;;;36.50;97.20;;;;;;4868841;29;20067;-92
2022/07/26 11:04:27;;;;;;;20.58;19.10;;;36.70;96.80;;;;;;4870604;29;20047;-91
2022/07/26 11:06:59;;;;;;;20.83;19.30;;;36.50;96.70;;;;;;4885961;29;20115;-91
2022/07/26 11:09:33;;;;;;;20.17;18.85;;;36.70;96.60;;;;;;4870827;29;20033;-91
2022/07/26 11:12:17;;;;;;;21.05;19.27;;;36.90;96.60;;;;;;4870571;29;20044;-91
2022/07/26 11:14:43;;;;;;;20.40;18.90;;;37.30;96.60;;;;;;4901326;29;20033;-92
2022/07/26 11:17:30;;;;;;;20.25;18.75;;;37.50;96.30;;;;;;4871686;29;20048;-92
2022/07/26 11:19:57;;;;;;;20.20;18.90;;;37.10;96.50;;;;;;4885513;29;20063;-90
2022/07/26 11:22:34;;;;;;;19.90;18.60;;;37.00;96.90;;;;;;4870189;29;20038;-90
2022/07/26 11:25:03;;;;;;;20.55;18.88;;;37.10;97.00;;;;;;4870251;29;20043;-92
2022/07/26 11:27:30;;;;;;;20.80;19.02;;;37.20;96.70;;;;;;4870585;29;20035;-92
2022/07/26 11:33:47;;;;;;;21.50;19.48;;;37.30;97.70;;;;;;4885658;29;20044;-91
2022/07/26 11:36:14;;;;;;;20.50;19.05;;;37.60;97.40;;;;;;4869998;29;20032;-91
2022/07/26 11:38:55;;;;;;;21.40;19.52;;;37.60;97.40;;;;;;4885405;29;20052;-91
2022/07/26 11:41:24;;;;;;;20.60;19.20;;;37.50;97.20;;;;;;4869899;29;20032;-90
2022/07/26 11:43:51;;;;;;;21.83;20.23;;;37.10;97.60;;;;;;4870205;29;20063;-91
2022/07/26 11:46:19;;;;;;;22.23;20.30;;;37.10;97.80;;;;;;4885061;29;20033;-89
2022/07/26 11:48:50;;;;;;;22.27;20.58;;;37.20;98.00;;;;;;4869568;29;20028;-90
2022/07/26 11:51:22;;;;;;;21.20;19.50;;;37.40;98.20;;;;;;4869679;29;20041;-89
2022/07/26 11:53:50;;;;;;;20.48;19.08;;;37.30;98.20;;;;;;4869750;29;20035;-89
2022/07/26 11:56:22;;;;;;;22.25;20.60;;;37.00;98.00;;;;;;4885023;29;20029;-89
2022/07/26 11:58:50;;;;;;;21.98;20.48;;;37.00;98.30;;;;;;4869645;29;20037;-90
2022/07/26 12:01:21;;;;;;;21.60;19.88;;;37.20;98.20;;;;;;4885301;29;20059;-90
2022/07/26 12:03:50;;;;;;;19.98;18.38;;;37.10;98.40;;;;;;4884902;29;20127;-91
2022/07/26 12:06:25;;;;;;;20.13;18.70;;;37.10;98.20;;;;;;4884853;29;20653;-90
2022/07/26 12:08:57;;;;;;;21.02;19.33;;;37.50;97.40;;;;;;4869481;29;20032;-90
2022/07/26 12:11:36;;;;;;;20.95;19.25;;;37.30;97.70;;;;;;4884642;29;20043;-91
2022/07/26 12:14:05;;;;;;;20.55;19.15;;;37.30;97.40;;;;;;4870162;29;20037;-90
2022/07/26 12:16:43;;;;;;;19.95;18.45;;;37.30;97.60;;;;;;4885134;29;20073;-90
2022/07/26 12:19:25;;;;;;;19.48;18.23;;;37.10;97.70;;;;;;4869347;29;20033;-90
2022/07/26 12:21:57;;;;;;;19.67;18.38;;;37.30;97.70;;;;;;4884708;29;20439;-91
2022/07/26 12:24:34;;;;;;;20.45;18.95;;;37.20;97.50;;;;;;4869198;29;20044;-90
2022/07/26 12:27:19;;;;;;;21.10;19.50;;;36.70;97.70;;;;;;4869044;29;20095;-92
2022/07/26 12:30:15;;;;;;;21.40;19.60;;;36.60;98.20;;;;;;4869076;29;20032;-90
2022/07/26 12:32:45;;;;;;;20.42;18.92;;;36.90;98.10;;;;;;4869099;29;20071;-91
2022/07/26 12:35:24;;;;;;;19.75;18.25;;;36.70;97.70;;;;;;4868856;29;20025;-91
2022/07/26 12:37:52;;;;;;;20.40;18.80;;;36.60;97.80;;;;;;4868829;29;20040;-90
2022/07/26 12:40:27;;;;;;;20.55;19.02;;;36.50;97.90;;;;;;4868716;29;20033;-93
2022/07/26 12:42:58;;;;;;;20.55;18.90;;;36.90;97.70;;;;;;4884118;29;20497;-90
2022/07/26 12:45:30;;;;;;;20.25;18.75;;;37.10;97.50;;;;;;4868721;29;20084;-91
2022/07/26 12:47:59;;;;;;;20.13;18.63;;;37.50;97.40;;;;;;4868761;29;20029;-91
2022/07/26 12:50:28;;;;;;;19.75;18.27;;;37.60;97.10;;;;;;4868629;29;20043;-90
2022/07/26 12:53:07;;;;;;;19.42;17.98;;;37.50;97.10;;;;;;4868608;29;20123;-90
2022/07/26 12:55:34;;;;;;;20.08;18.70;;;37.20;97.30;;;;;;4868845;29;20060;-90
2022/07/26 12:58:01;;;;;;;20.35;18.92;;;37.10;97.50;;;;;;4868440;29;20080;-91
2022/07/26 13:00:28;;;;;;;19.40;18.00;;;36.70;97.50;;;;;;4883915;29;20139;-91
2022/07/26 13:02:54;;;;;;;20.15;18.50;;;36.70;97.70;;;;;;4883678;29;20112;-91
2022/07/26 13:05:22;;;;;;;19.95;18.52;;;36.90;97.80;;;;;;4868348;29;20059;-91
2022/07/26 13:07:50;;;;;;;20.15;18.55;;;36.70;97.80;;;;;;4866605;29;20116;-90
2022/07/26 13:10:17;;;;;;;20.52;18.77;;;36.80;97.80;;;;;;4868083;29;20036;-90
2022/07/26 13:12:43;;;;;;;20.73;19.17;;;36.70;97.70;;;;;;4868375;29;20060;-92
2022/07/26 13:15:09;;;;;;;20.77;19.27;;;36.60;97.80;;;;;;4868148;29;20033;-91
2022/07/26 13:17:36;;;;;;;20.88;19.17;;;36.50;98.00;;;;;;4868213;29;20036;-90
2022/07/26 13:20:03;;;;;;;19.63;18.23;;;36.90;97.80;;;;;;4868145;29;20112;-90
2022/07/26 13:22:29;;;;;;;20.08;18.58;;;37.00;97.80;;;;;;4867901;29;20128;-89
2022/07/26 13:24:55;;;;;;;19.88;18.08;;;37.30;97.50;;;;;;4867548;29;20089;-92
2022/07/26 13:27:22;;;;;;;19.17;17.70;;;37.40;97.20;;;;;;4883460;29;20080;-91
2022/07/26 13:29:48;;;;;;;19.23;17.73;;;37.50;97.10;;;;;;4867783;29;20032;-91
2022/07/26 13:32:16;;;;;;;19.95;18.65;;;37.20;97.10;;;;;;4883439;29;20054;-92
2022/07/26 13:34:43;;;;;;;19.70;18.08;;;37.10;96.90;;;;;;4867833;29;20494;-92
2022/07/26 13:37:09;;;;;;;18.95;17.58;;;37.20;96.90;;;;;;4867616;29;20029;-93
2022/07/26 13:39:35;;;;;;;19.40;18.02;;;37.30;96.60;;;;;;4883274;29;20028;-91
2022/07/26 13:42:02;;;;;;;19.95;18.40;;;36.80;96.40;;;;;;4867796;29;20073;-91
2022/07/26 13:44:28;;;;;;;19.63;18.17;;;36.50;96.70;;;;;;4867685;29;20032;-91
2022/07/26 13:46:55;;;;;;;19.70;18.30;;;36.40;96.80;;;;;;4871153;29;20084;-94
2022/07/26 13:49:22;;;;;;;19.33;17.73;;;36.20;97.10;;;;;;4875690;29;20495;-94
2022/07/26 13:51:58;;;;;;;18.75;17.23;;;36.50;97.10;;;;;;4883729;29;20036;-94
2022/07/26 13:54:27;;;;;;;18.77;17.55;;;36.20;96.90;;;;;;4885974;29;20029;-93
2022/07/26 13:56:54;;;;;;;19.20;17.70;;;36.20;97.10;;;;;;4886985;29;20051;-93
2022/07/26 13:59:20;;;;;;;19.38;17.80;;;36.50;97.10;;;;;;4882701;29;20172;-93
2022/07/26 14:01:54;;;;;;;19.17;17.67;;;36.60;96.90;;;;;;4872648;29;20033;-93
2022/07/26 19:50:50;;;;;;;22.80;20.23;;;30.20;99.90;;;;;;5098128;23;20435;-93
2022/07/26 21:04:54;;;;;;;22.08;18.30;;;29.60;99.90;;;;;;5674446;23;20388;31
